Aeroporto :







RITROVATECI SU...

 
LOGIN :

Iscrizione | Disclaimer

   EN    FR    IT 

 









Sommario :    VFR   VFR Marginale   IFR   IFR Intensivo   IFR Molto Intensivo
Visibilità : 
Base nubi : 
>= 8 km
>= 3000ft
5 / 8 km
1000 / 3000 ft
1500m / 5 km
500 / 1000 ft
800 / 1500m
200 / 500 ft
< 800m
< 200 ft
Simboli :   Temporali  Nebbia  Neve Forte  Precipitazioni Forti  Vento > 20 kt






- Altitudine del aeroporto : 328 ft


KGFL - Floyd Bennett Memorial

ULTIMO METAR :
  • 171453Z AUTO 00000KT 10SM CLR M04/M11 A3046 RMK AO2 SLP326 T10391111 56007

METARs OBSOLETI :
  • 171353Z AUTO 00000KT 10SM CLR M07/M12 A3047 RMK AO2 SLP329 T10721117
  • 171253Z AUTO 00000KT 10SM CLR M09/M13 A3047 RMK AO2 SLP330 T10891128

TAF KGFL
Valido dal 17 a 12 ore il 18 a 12 ore UTC


171132Z 1712/1812 06005KT P6SM FEW250
FM180300 04004KT P6SM BKN035
FM180900 02004KT P6SM VCSH OVC025



MetMap, La meteo Aeronautica in un colpo d'occhio ! - Copyright ORBIFLY Dicembre 2007 - Disclaimer

ORBIFLY MET'MAP TEAM :

Programmazione e sviluppo : Alexandra Zaïnal
Concezione e sviluppo : Baudouin d'Aumeries
Co-Programmazione e sviluppo : Marc-Olivier Méhu
Supporto tecnico e logistico : Manuel Goepfert
Aiuto per la traduzione : Arnaldo La Scala

Contatto : metmap@orbifly.com




FONTI E CREDITI :

   NOAA